Emerald Coast — WDC9127 — position and weather

sailwx.info

Track history (hours):
 
Tides and Currents Weather Stations Pressure Air Temp Water Temp Dewpoint Dewpoint Depression Visibility Wind Speed Wind Dir Waves Ship Positions

Emerald Coast

Owner: Dann Marine Towing, LC, Chesapeake City, MD. More information available from US FCC via Universal Licensing System and Coast Guard Vessel Documentation Center.

Last reported at 2015-Mar-30 06:33 UTC. Time now 2015-Mar-30 07:09 UTC.
Position N 40°41' W 074°08'.

; draft 3 m.

Type: Towing. MMSI: 367097920.

Date/timePositionNaut miles runAvg speedWind from/ knotsBaromVisibWave heightAir tempDewpointWater temp
2015-Mar-30 06:33N 40°41' W 074°08'0 0.0
2015-Mar-30 05:33N 40°41' W 074°08'0 0.0
2015-Mar-30 04:33N 40°41' W 074°08'2 2.2
2015-Mar-30 03:33N 40°39' W 074°09'5 4.9
2015-Mar-30 02:34N 40°39' W 074°02'1 1.2
2015-Mar-30 01:33N 40°38' W 074°03'1 1.3
2015-Mar-30 00:33N 40°38' W 074°04'1 1.1
2015-Mar-29 23:33N 40°39' W 074°05'2 1.8
2015-Mar-29 22:33N 40°39' W 074°07'0 0.0
2015-Mar-29 21:34N 40°39' W 074°07'0 0.0
2015-Mar-29 20:33N 40°39' W 074°07'0 0.0
2015-Mar-29 19:33N 40°39' W 074°07'0 0.0
2015-Mar-29 18:33N 40°39' W 074°07'0 0.0
2015-Mar-29 17:33N 40°39' W 074°07'0 0.0
2015-Mar-29 16:33N 40°39' W 074°07'1 0.7
2015-Mar-29 15:33N 40°39' W 074°06'1 0.7
2015-Mar-29 14:33N 40°39' W 074°07'0 0.0
2015-Mar-29 13:33N 40°39' W 074°07'0 0.0
2015-Mar-29 12:33N 40°39' W 074°07'1 0.8
2015-Mar-29 11:33N 40°39' W 074°06'2 1.9
2015-Mar-29 10:33N 40°40' W 074°04'3 2.6
2015-Mar-29 09:33N 40°40' W 074°01'2 1.6
2015-Mar-29 08:33N 40°39' W 074°03'3 3.3
2015-Mar-29 07:32N 40°39' W 074°07'0 0.0
2015-Mar-29 06:30N 40°39' W 074°07'0 0.0
2015-Mar-29 05:33N 40°39' W 074°07'0 0.0
2015-Mar-29 04:30N 40°39' W 074°07'5 5.7
2015-Mar-29 03:33N 40°40' W 074°01'1 1.3
2015-Mar-29 02:33N 40°39' W 074°02'3 2.9
2015-Mar-29 01:33N 40°39' W 074°05'1 1.4
2015-Mar-29 00:33N 40°39' W 074°07'0 0.0
2015-Mar-28 23:33N 40°39' W 074°07'0 0.0
2015-Mar-28 22:33N 40°39' W 074°07'0 0.0
2015-Mar-28 21:34N 40°39' W 074°07'0 0.0
2015-Mar-28 20:33N 40°39' W 074°07'0 0.0
2015-Mar-28 19:33N 40°39' W 074°07'0 0.0
2015-Mar-28 18:33N 40°39' W 074°07'0 0.0
2015-Mar-28 17:33N 40°39' W 074°07'0 0.0
2015-Mar-28 16:33N 40°39' W 074°07'0 0.0
2015-Mar-28 15:32N 40°39' W 074°07'1 0.8
2015-Mar-28 14:33N 40°39' W 074°06'2 1.9
2015-Mar-28 13:33N 40°38' W 074°04'0 0.0
2015-Mar-28 12:33N 40°38' W 074°04'0 0.0
2015-Mar-28 11:33N 40°38' W 074°04'0 0.0
2015-Mar-28 10:33N 40°38' W 074°04'0 0.0
2015-Mar-28 09:33N 40°38' W 074°04'0 0.0
2015-Mar-28 08:33N 40°38' W 074°04'0 0.0
2015-Mar-28 07:33N 40°38' W 074°04'0 0.1
2015-Mar-28 06:34N 40°38' W 074°04'0 0.1
2015-Mar-28 05:33N 40°38' W 074°04'1 1.5
2015-Mar-28 04:33N 40°39' W 074°05'1 1.5
2015-Mar-28 03:33N 40°38' W 074°07'0 0.0
2015-Mar-28 02:32N 40°38' W 074°07'0 0.0
2015-Mar-28 01:20N 40°38' W 074°07'0 0.0
2015-Mar-28 00:31N 40°38' W 074°07'0 0.0
2015-Mar-27 23:31N 40°38' W 074°07'0 0.0
2015-Mar-27 22:31N 40°38' W 074°07'4 4.0
2015-Mar-27 21:33N 40°40' W 074°03'0 0.2
2015-Mar-27 20:33N 40°41' W 074°03'6 6.0
2015-Mar-27 19:33N 40°46' W 073°60'0 0.0
2015-Mar-27 18:33N 40°46' W 073°60'0 0.0
2015-Mar-27 17:33N 40°46' W 073°60'0 0.0
2015-Mar-27 16:33N 40°46' W 073°60'0 0.0
2015-Mar-27 15:33N 40°46' W 073°60'0 0.0
2015-Mar-27 14:33N 40°46' W 073°60'2 2.1
2015-Mar-27 13:33N 40°44' W 074°01'3 3.3
2015-Mar-27 12:33N 40°41' W 074°02'3 2.7
2015-Mar-27 11:33N 40°39' W 074°05'0 0.0
2015-Mar-27 10:33N 40°39' W 074°05'0 0.0
2015-Mar-27 09:33N 40°39' W 074°05'0 0.0
2015-Mar-27 08:33N 40°39' W 074°05'0 0.0
2015-Mar-27 07:33N 40°39' W 074°05'0 0.2
2015-Mar-27 06:33N 40°39' W 074°05'4 3.8
2015-Mar-27 05:33N 40°40' W 074°00'0 0.0
2015-Mar-27 04:33N 40°40' W 074°00'2 2.0
2015-Mar-27 03:33N 40°42' W 074°02'12 8.9
2015-Mar-27 02:14N 40°53' W 073°56'3 1.5
2015-Mar-27 00:26N 40°55' W 073°55'0 0.0
2015-Mar-26 23:30N 40°55' W 073°55'20 0.7
2015-Mar-25 18:21N 41°15' W 073°58'23 6.0
2015-Mar-25 14:29N 40°52' W 073°57'4 4.0
2015-Mar-25 13:33N 40°48' W 073°59'3 2.9
2015-Mar-25 12:33N 40°46' W 074°00'3 2.6
2015-Mar-25 11:33N 40°43' W 074°01'3 3.2
2015-Mar-25 10:33N 40°40' W 074°03'5 5.1
2015-Mar-25 09:31N 40°39' W 074°09'3 2.6
2015-Mar-25 08:33N 40°38' W 074°12'2 2.4
2015-Mar-25 07:33N 40°39' W 074°10'2 0.1
2015-Mar-24 19:16N 40°39' W 074°07'4 3.8
2015-Mar-24 18:21N 40°38' W 074°12'0 0.1
2015-Mar-24 17:31N 40°38' W 074°12'2 2.1
2015-Mar-24 16:33N 40°39' W 074°09'0 0.4
2015-Mar-24 15:32N 40°38' W 074°09'0 0.0
2015-Mar-24 09:28N 40°39' W 074°10'2 2.6
2015-Mar-24 08:33N 40°39' W 074°07'1 1.2
2015-Mar-24 07:33N 40°39' W 074°05'0 0.1
2015-Mar-24 06:33N 40°39' W 074°05'2 0.1
2015-Mar-23 16:14N 40°39' W 074°07'0 0.1
2015-Mar-23 14:26N 40°39' W 074°07'1 1.4
2015-Mar-23 13:34N 40°39' W 074°05'3 3.1
2015-Mar-23 12:30N 40°39' W 074°10'3 3.2
2015-Mar-23 11:30N 40°36' W 074°12'0 0.0
2015-Mar-23 10:29N 40°36' W 074°12'0 0.0
2015-Mar-23 09:30N 40°36' W 074°12'3 1.4
2015-Mar-23 07:33N 40°39' W 074°11'3 0.9
2015-Mar-23 04:07N 40°39' W 074°07'4 6.5
2015-Mar-23 03:33N 40°40' W 074°03'3 2.3
2015-Mar-23 02:12N 40°39' W 074°07'2 0.4
2015-Mar-22 19:33N 40°41' W 074°09'1 0.4
2015-Mar-22 17:27N 40°41' W 074°10'0 0.0
2015-Mar-22 16:33N 40°41' W 074°10'0 0.0
2015-Mar-22 15:33N 40°41' W 074°10'0 0.0
2015-Mar-22 14:20N 40°41' W 074°10'0 0.0
2015-Mar-22 13:33N 40°41' W 074°10'0 0.0
2015-Mar-22 12:28N 40°41' W 074°10'1 0.7
2015-Mar-22 11:32N 40°41' W 074°09'1 0.6
2015-Mar-22 10:33N 40°41' W 074°10'0 0.0
2015-Mar-22 09:33N 40°41' W 074°10'0 0.0
2015-Mar-22 08:33N 40°41' W 074°10'0 0.0
2015-Mar-22 07:33N 40°41' W 074°10'0 0.0
2015-Mar-22 06:33N 40°41' W 074°10'0 0.0
2015-Mar-22 05:33N 40°41' W 074°10'1 1.3
2015-Mar-22 04:33N 40°41' W 074°08'2 2.0
2015-Mar-22 03:33N 40°39' W 074°07'0 0.1
2015-Mar-22 02:33N 40°39' W 074°07'0 0.0
2015-Mar-21 23:16N 40°39' W 074°07'1 1.4
2015-Mar-21 22:34N 40°39' W 074°08'1 1.1
2015-Mar-21 21:33N 40°39' W 074°10'5 4.5
2015-Mar-21 20:34N 40°40' W 074°04'0 0.4
2015-Mar-21 19:34N 40°40' W 074°04'0 0.0
2015-Mar-21 18:33N 40°40' W 074°04'0 0.0
2015-Mar-21 17:33N 40°40' W 074°04'0 0.0
2015-Mar-21 16:33N 40°40' W 074°04'3 2.5
2015-Mar-21 15:33N 40°39' W 074°07'0 0.0
2015-Mar-21 14:33N 40°39' W 074°07'0 0.0
2015-Mar-21 13:33N 40°39' W 074°07'0 0.0
2015-Mar-21 12:33N 40°39' W 074°07'2 2.5
2015-Mar-21 11:34N 40°40' W 074°04'1 0.5
2015-Mar-21 10:33N 40°39' W 074°04'2 1.7
2015-Mar-21 09:10N 40°39' W 074°07'1 0.2
2015-Mar-21 04:33N 40°39' W 074°06'2 2.5
2015-Mar-21 03:33N 40°40' W 074°03'1 1.3
2015-Mar-21 02:34N 40°38' W 074°04'0 0.2
2015-Mar-21 01:33N 40°39' W 074°04'0 0.0
2015-Mar-21 00:33N 40°39' W 074°04'0 0.0
2015-Mar-20 23:33N 40°39' W 074°04'2 2.2
2015-Mar-20 22:33N 40°39' W 074°07'1 0.3
2015-Mar-20 19:33N 40°39' W 074°05'5 4.5
2015-Mar-20 18:33N 40°41' W 074°00'1 1.5
2015-Mar-20 17:33N 40°41' W 074°02'4 4.1
2015-Mar-20 16:30N 40°39' W 074°07'0 0.0
2015-Mar-20 15:34N 40°39' W 074°07'0 0.0
2015-Mar-20 14:30N 40°39' W 074°07'4 4.5
2015-Mar-20 13:33N 40°39' W 074°01'2 2.4
2015-Mar-20 12:33N 40°39' W 074°05'4 4.0
2015-Mar-20 11:29N 40°41' W 074°09'0 0.0
2015-Mar-20 10:29N 40°41' W 074°09'0 0.0
2015-Mar-20 09:09N 40°41' W 074°09'2 3.2
2015-Mar-20 08:33N 40°39' W 074°09'2 1.6
2015-Mar-20 07:34N 40°39' W 074°07'  
Track history (hours):
 
Tides and Currents Weather Stations Pressure Air Temp Water Temp Dewpoint Dewpoint Depression Visibility Wind Speed Wind Dir Waves Ship Positions

Emerald Coast

Owner: Dann Marine Towing, LC, Chesapeake City, MD. More information available from US FCC via Universal Licensing System and Coast Guard Vessel Documentation Center.

Last reported at 2015-Mar-30 06:33 UTC. Time now 2015-Mar-30 07:09 UTC.
Position N 40°41' W 074°08'.

; draft 3 m.

Type: Towing. MMSI: 367097920.

Date/timePositionNaut miles runAvg speedWind from/ knotsBaromVisibWave heightAir tempDewpointWater temp
2015-Mar-30 06:33N 40°41' W 074°08'0 0.0
2015-Mar-30 05:33N 40°41' W 074°08'0 0.0
2015-Mar-30 04:33N 40°41' W 074°08'2 2.2
2015-Mar-30 03:33N 40°39' W 074°09'5 4.9
2015-Mar-30 02:34N 40°39' W 074°02'1 1.2
2015-Mar-30 01:33N 40°38' W 074°03'1 1.3
2015-Mar-30 00:33N 40°38' W 074°04'1 1.1
2015-Mar-29 23:33N 40°39' W 074°05'2 1.8
2015-Mar-29 22:33N 40°39' W 074°07'0 0.0
2015-Mar-29 21:34N 40°39' W 074°07'0 0.0
2015-Mar-29 20:33N 40°39' W 074°07'0 0.0
2015-Mar-29 19:33N 40°39' W 074°07'0 0.0
2015-Mar-29 18:33N 40°39' W 074°07'0 0.0
2015-Mar-29 17:33N 40°39' W 074°07'0 0.0
2015-Mar-29 16:33N 40°39' W 074°07'1 0.7
2015-Mar-29 15:33N 40°39' W 074°06'1 0.7
2015-Mar-29 14:33N 40°39' W 074°07'0 0.0
2015-Mar-29 13:33N 40°39' W 074°07'0 0.0
2015-Mar-29 12:33N 40°39' W 074°07'1 0.8
2015-Mar-29 11:33N 40°39' W 074°06'2 1.9
2015-Mar-29 10:33N 40°40' W 074°04'3 2.6
2015-Mar-29 09:33N 40°40' W 074°01'2 1.6
2015-Mar-29 08:33N 40°39' W 074°03'3 3.3
2015-Mar-29 07:32N 40°39' W 074°07'0 0.0
2015-Mar-29 06:30N 40°39' W 074°07'0 0.0
2015-Mar-29 05:33N 40°39' W 074°07'0 0.0
2015-Mar-29 04:30N 40°39' W 074°07'5 5.7
2015-Mar-29 03:33N 40°40' W 074°01'1 1.3
2015-Mar-29 02:33N 40°39' W 074°02'3 2.9
2015-Mar-29 01:33N 40°39' W 074°05'1 1.4
2015-Mar-29 00:33N 40°39' W 074°07'0 0.0
2015-Mar-28 23:33N 40°39' W 074°07'0 0.0
2015-Mar-28 22:33N 40°39' W 074°07'0 0.0
2015-Mar-28 21:34N 40°39' W 074°07'0 0.0
2015-Mar-28 20:33N 40°39' W 074°07'0 0.0
2015-Mar-28 19:33N 40°39' W 074°07'0 0.0
2015-Mar-28 18:33N 40°39' W 074°07'0 0.0
2015-Mar-28 17:33N 40°39' W 074°07'0 0.0
2015-Mar-28 16:33N 40°39' W 074°07'0 0.0
2015-Mar-28 15:32N 40°39' W 074°07'1 0.8
2015-Mar-28 14:33N 40°39' W 074°06'2 1.9
2015-Mar-28 13:33N 40°38' W 074°04'0 0.0
2015-Mar-28 12:33N 40°38' W 074°04'0 0.0
2015-Mar-28 11:33N 40°38' W 074°04'0 0.0
2015-Mar-28 10:33N 40°38' W 074°04'0 0.0
2015-Mar-28 09:33N 40°38' W 074°04'0 0.0
2015-Mar-28 08:33N 40°38' W 074°04'0 0.0
2015-Mar-28 07:33N 40°38' W 074°04'0 0.1
2015-Mar-28 06:34N 40°38' W 074°04'0 0.1
2015-Mar-28 05:33N 40°38' W 074°04'1 1.5
2015-Mar-28 04:33N 40°39' W 074°05'1 1.5
2015-Mar-28 03:33N 40°38' W 074°07'0 0.0
2015-Mar-28 02:32N 40°38' W 074°07'0 0.0
2015-Mar-28 01:20N 40°38' W 074°07'0 0.0
2015-Mar-28 00:31N 40°38' W 074°07'0 0.0
2015-Mar-27 23:31N 40°38' W 074°07'0 0.0
2015-Mar-27 22:31N 40°38' W 074°07'4 4.0
2015-Mar-27 21:33N 40°40' W 074°03'0 0.2
2015-Mar-27 20:33N 40°41' W 074°03'6 6.0
2015-Mar-27 19:33N 40°46' W 073°60'0 0.0
2015-Mar-27 18:33N 40°46' W 073°60'0 0.0
2015-Mar-27 17:33N 40°46' W 073°60'0 0.0
2015-Mar-27 16:33N 40°46' W 073°60'0 0.0
2015-Mar-27 15:33N 40°46' W 073°60'0 0.0
2015-Mar-27 14:33N 40°46' W 073°60'2 2.1
2015-Mar-27 13:33N 40°44' W 074°01'3 3.3
2015-Mar-27 12:33N 40°41' W 074°02'3 2.7
2015-Mar-27 11:33N 40°39' W 074°05'0 0.0
2015-Mar-27 10:33N 40°39' W 074°05'0 0.0
2015-Mar-27 09:33N 40°39' W 074°05'0 0.0
2015-Mar-27 08:33N 40°39' W 074°05'0 0.0
2015-Mar-27 07:33N 40°39' W 074°05'0 0.2
2015-Mar-27 06:33N 40°39' W 074°05'4 3.8
2015-Mar-27 05:33N 40°40' W 074°00'0 0.0
2015-Mar-27 04:33N 40°40' W 074°00'2 2.0
2015-Mar-27 03:33N 40°42' W 074°02'12 8.9
2015-Mar-27 02:14N 40°53' W 073°56'3 1.5
2015-Mar-27 00:26N 40°55' W 073°55'0 0.0
2015-Mar-26 23:30N 40°55' W 073°55'20 0.7
2015-Mar-25 18:21N 41°15' W 073°58'23 6.0
2015-Mar-25 14:29N 40°52' W 073°57'4 4.0
2015-Mar-25 13:33N 40°48' W 073°59'3 2.9
2015-Mar-25 12:33N 40°46' W 074°00'3 2.6
2015-Mar-25 11:33N 40°43' W 074°01'3 3.2
2015-Mar-25 10:33N 40°40' W 074°03'5 5.1
2015-Mar-25 09:31N 40°39' W 074°09'3 2.6
2015-Mar-25 08:33N 40°38' W 074°12'2 2.4
2015-Mar-25 07:33N 40°39' W 074°10'2 0.1
2015-Mar-24 19:16N 40°39' W 074°07'4 3.8
2015-Mar-24 18:21N 40°38' W 074°12'0 0.1
2015-Mar-24 17:31N 40°38' W 074°12'2 2.1
2015-Mar-24 16:33N 40°39' W 074°09'0 0.4
2015-Mar-24 15:32N 40°38' W 074°09'0 0.0
2015-Mar-24 09:28N 40°39' W 074°10'2 2.6
2015-Mar-24 08:33N 40°39' W 074°07'1 1.2
2015-Mar-24 07:33N 40°39' W 074°05'0 0.1
2015-Mar-24 06:33N 40°39' W 074°05'2 0.1
2015-Mar-23 16:14N 40°39' W 074°07'0 0.1
2015-Mar-23 14:26N 40°39' W 074°07'1 1.4
2015-Mar-23 13:34N 40°39' W 074°05'3 3.1
2015-Mar-23 12:30N 40°39' W 074°10'3 3.2
2015-Mar-23 11:30N 40°36' W 074°12'0 0.0
2015-Mar-23 10:29N 40°36' W 074°12'0 0.0
2015-Mar-23 09:30N 40°36' W 074°12'3 1.4
2015-Mar-23 07:33N 40°39' W 074°11'3 0.9
2015-Mar-23 04:07N 40°39' W 074°07'4 6.5
2015-Mar-23 03:33N 40°40' W 074°03'3 2.3
2015-Mar-23 02:12N 40°39' W 074°07'2 0.4
2015-Mar-22 19:33N 40°41' W 074°09'1 0.4
2015-Mar-22 17:27N 40°41' W 074°10'0 0.0
2015-Mar-22 16:33N 40°41' W 074°10'0 0.0
2015-Mar-22 15:33N 40°41' W 074°10'0 0.0
2015-Mar-22 14:20N 40°41' W 074°10'0 0.0
2015-Mar-22 13:33N 40°41' W 074°10'0 0.0
2015-Mar-22 12:28N 40°41' W 074°10'1 0.7
2015-Mar-22 11:32N 40°41' W 074°09'1 0.6
2015-Mar-22 10:33N 40°41' W 074°10'0 0.0
2015-Mar-22 09:33N 40°41' W 074°10'0 0.0
2015-Mar-22 08:33N 40°41' W 074°10'0 0.0
2015-Mar-22 07:33N 40°41' W 074°10'0 0.0
2015-Mar-22 06:33N 40°41' W 074°10'0 0.0
2015-Mar-22 05:33N 40°41' W 074°10'1 1.3
2015-Mar-22 04:33N 40°41' W 074°08'2 2.0
2015-Mar-22 03:33N 40°39' W 074°07'0 0.1
2015-Mar-22 02:33N 40°39' W 074°07'0 0.0
2015-Mar-21 23:16N 40°39' W 074°07'1 1.4
2015-Mar-21 22:34N 40°39' W 074°08'1 1.1
2015-Mar-21 21:33N 40°39' W 074°10'5 4.5
2015-Mar-21 20:34N 40°40' W 074°04'0 0.4
2015-Mar-21 19:34N 40°40' W 074°04'0 0.0
2015-Mar-21 18:33N 40°40' W 074°04'0 0.0
2015-Mar-21 17:33N 40°40' W 074°04'0 0.0
2015-Mar-21 16:33N 40°40' W 074°04'3 2.5
2015-Mar-21 15:33N 40°39' W 074°07'0 0.0
2015-Mar-21 14:33N 40°39' W 074°07'0 0.0
2015-Mar-21 13:33N 40°39' W 074°07'0 0.0
2015-Mar-21 12:33N 40°39' W 074°07'2 2.5
2015-Mar-21 11:34N 40°40' W 074°04'1 0.5
2015-Mar-21 10:33N 40°39' W 074°04'2 1.7
2015-Mar-21 09:10N 40°39' W 074°07'1 0.2
2015-Mar-21 04:33N 40°39' W 074°06'2 2.5
2015-Mar-21 03:33N 40°40' W 074°03'1 1.3
2015-Mar-21 02:34N 40°38' W 074°04'0 0.2
2015-Mar-21 01:33N 40°39' W 074°04'0 0.0
2015-Mar-21 00:33N 40°39' W 074°04'0 0.0
2015-Mar-20 23:33N 40°39' W 074°04'2 2.2
2015-Mar-20 22:33N 40°39' W 074°07'1 0.3
2015-Mar-20 19:33N 40°39' W 074°05'5 4.5
2015-Mar-20 18:33N 40°41' W 074°00'1 1.5
2015-Mar-20 17:33N 40°41' W 074°02'4 4.1
2015-Mar-20 16:30N 40°39' W 074°07'0 0.0
2015-Mar-20 15:34N 40°39' W 074°07'0 0.0
2015-Mar-20 14:30N 40°39' W 074°07'4 4.5
2015-Mar-20 13:33N 40°39' W 074°01'2 2.4
2015-Mar-20 12:33N 40°39' W 074°05'4 4.0
2015-Mar-20 11:29N 40°41' W 074°09'0 0.0
2015-Mar-20 10:29N 40°41' W 074°09'0 0.0
2015-Mar-20 09:09N 40°41' W 074°09'2 3.2
2015-Mar-20 08:33N 40°39' W 074°09'2 1.6
2015-Mar-20 07:34N 40°39' W 074°07'  

Dump ship's entire track history